CheckWX is a tool to help pilots better visualize weather data.  It is not intended as a substitute for an official pre-flight weather briefing.

03:56:03 UTC

KGPH METAR
Midwest National Air Center Airport
Mosby, Missouri, USA
Current

3 hours ago

KGPH 230035Z AUTO 36011G15KT 10SM SCT060 26/12 A3014 RMK AO2
Observed
Jul-23 @ 00:35 UTC
Wind
  • 360° at 11 KTS
  • Gusting to 15 KTS
Visibility
10 SM
Flight Rules
VFR
Cloud Levels
  • Scattered at 6,000' AGL
Temperature
26°C / 79°F
Dewpoint
12°C / 54°F
Humidity
42%
Altimeter
30.14" Hg
Pressure
1020.62 hPa
Previous

5 hours ago

KGPH 222315Z AUTO 01013KT 10SM SCT060 27/12 A3014 RMK AO2
Observed
Jul-22 @ 23:15 UTC
Wind
  • 010° at 13 KTS
Visibility
10 SM
Flight Rules
VFR
Cloud Levels
  • Scattered at 6,000' AGL
Temperature
27°C / 81°F
Dewpoint
12°C / 54°F
Humidity
39%
Altimeter
30.14" Hg
Pressure
1020.62 hPa
Previous

6 hours ago

KGPH 222215Z AUTO 36012G19KT 10SM SCT060 27/11 A3014 RMK AO2
Observed
Jul-22 @ 22:15 UTC
Wind
  • 360° at 12 KTS
  • Gusting to 19 KTS
Visibility
10 SM
Flight Rules
VFR
Cloud Levels
  • Scattered at 6,000' AGL
Temperature
27°C / 81°F
Dewpoint
11°C / 52°F
Humidity
37%
Altimeter
30.14" Hg
Pressure
1020.62 hPa